sensor_id;sensor_type;location;lat;lon;timestamp;P1;durP1;ratioP1;P2;durP2;ratioP2
30287;SDS011;17103;48.316;11.558;2023-01-06T00:01:52;5.65;;;2.05;;
30287;SDS011;17103;48.316;11.558;2023-01-06T00:06:46;3.17;;;1.27;;
30287;SDS011;17103;48.316;11.558;2023-01-06T00:11:45;2.25;;;1.23;;
30287;SDS011;17103;48.316;11.558;2023-01-06T00:14:23;2.83;;;0.95;;
30287;SDS011;17103;48.316;11.558;2023-01-06T00:16:55;2.08;;;1.02;;
30287;SDS011;17103;48.316;11.558;2023-01-06T00:19:29;2.10;;;1.00;;
30287;SDS011;17103;48.316;11.558;2023-01-06T00:24:33;5.93;;;1.52;;
30287;SDS011;17103;48.316;11.558;2023-01-06T00:27:00;3.70;;;1.08;;
30287;SDS011;17103;48.316;11.558;2023-01-06T00:29:27;3.22;;;1.23;;
30287;SDS011;17103;48.316;11.558;2023-01-06T00:32:10;1.75;;;1.20;;
30287;SDS011;17103;48.316;11.558;2023-01-06T00:34:48;2.65;;;1.02;;
30287;SDS011;17103;48.316;11.558;2023-01-06T00:37:21;1.42;;;0.65;;
30287;SDS011;17103;48.316;11.558;2023-01-06T00:39:49;1.42;;;0.70;;
30287;SDS011;17103;48.316;11.558;2023-01-06T00:42:20;1.48;;;0.98;;
30287;SDS011;17103;48.316;11.558;2023-01-06T00:44:50;0.90;;;0.63;;
30287;SDS011;17103;48.316;11.558;2023-01-06T00:49:49;1.58;;;0.73;;
30287;SDS011;17103;48.316;11.558;2023-01-06T00:52:15;2.70;;;0.90;;
30287;SDS011;17103;48.316;11.558;2023-01-06T00:54:41;2.63;;;0.93;;
30287;SDS011;17103;48.316;11.558;2023-01-06T00:59:53;1.75;;;0.63;;
30287;SDS011;17103;48.316;11.558;2023-01-06T01:05:15;1.60;;;1.13;;
30287;SDS011;17103;48.316;11.558;2023-01-06T01:13:32;3.33;;;0.90;;
30287;SDS011;17103;48.316;11.558;2023-01-06T01:16:06;1.15;;;0.80;;
30287;SDS011;17103;48.316;11.558;2023-01-06T01:18:32;1.75;;;0.95;;
30287;SDS011;17103;48.316;11.558;2023-01-06T01:20:59;1.10;;;0.82;;
30287;SDS011;17103;48.316;11.558;2023-01-06T01:23:24;1.30;;;0.60;;
30287;SDS011;17103;48.316;11.558;2023-01-06T01:25:59;1.02;;;0.60;;
30287;SDS011;17103;48.316;11.558;2023-01-06T01:31:11;1.13;;;0.70;;
30287;SDS011;17103;48.316;11.558;2023-01-06T01:33:43;2.58;;;0.80;;
30287;SDS011;17103;48.316;11.558;2023-01-06T01:36:09;0.90;;;0.68;;
30287;SDS011;17103;48.316;11.558;2023-01-06T01:38:48;1.65;;;0.50;;
30287;SDS011;17103;48.316;11.558;2023-01-06T01:41:16;1.35;;;0.60;;
30287;SDS011;17103;48.316;11.558;2023-01-06T01:51:52;1.70;;;0.60;;
30287;SDS011;17103;48.316;11.558;2023-01-06T01:54:21;1.80;;;1.17;;
30287;SDS011;17103;48.316;11.558;2023-01-06T01:57:05;0.85;;;0.52;;
30287;SDS011;17103;48.316;11.558;2023-01-06T01:59:39;0.70;;;0.47;;
30287;SDS011;17103;48.316;11.558;2023-01-06T02:02:06;0.95;;;0.52;;
30287;SDS011;17103;48.316;11.558;2023-01-06T02:07:09;1.48;;;0.77;;
30287;SDS011;17103;48.316;11.558;2023-01-06T02:09:46;0.80;;;0.60;;
30287;SDS011;17103;48.316;11.558;2023-01-06T02:12:39;1.75;;;0.63;;
30287;SDS011;17103;48.316;11.558;2023-01-06T02:18:32;1.25;;;0.63;;
30287;SDS011;17103;48.316;11.558;2023-01-06T02:21:24;1.35;;;0.70;;
30287;SDS011;17103;48.316;11.558;2023-01-06T02:49:30;2.17;;;0.60;;
30287;SDS011;17103;48.316;11.558;2023-01-06T02:54:43;1.10;;;0.70;;
30287;SDS011;17103;48.316;11.558;2023-01-06T03:02:41;0.70;;;0.50;;
30287;SDS011;17103;48.316;11.558;2023-01-06T03:05:11;0.70;;;0.57;;
30287;SDS011;17103;48.316;11.558;2023-01-06T03:07:40;0.82;;;0.52;;
30287;SDS011;17103;48.316;11.558;2023-01-06T03:10:08;1.23;;;0.52;;
30287;SDS011;17103;48.316;11.558;2023-01-06T03:12:47;0.60;;;0.50;;
30287;SDS011;17103;48.316;11.558;2023-01-06T03:15:19;0.77;;;0.40;;
30287;SDS011;17103;48.316;11.558;2023-01-06T03:17:45;0.50;;;0.40;;
30287;SDS011;17103;48.316;11.558;2023-01-06T03:20:11;1.48;;;0.40;;
30287;SDS011;17103;48.316;11.558;2023-01-06T03:22:38;1.00;;;0.40;;
30287;SDS011;17103;48.316;11.558;2023-01-06T03:25:05;0.80;;;0.50;;
30287;SDS011;17103;48.316;11.558;2023-01-06T03:27:32;0.30;;;0.30;;
30287;SDS011;17103;48.316;11.558;2023-01-06T03:29:58;0.38;;;0.30;;
30287;SDS011;17103;48.316;11.558;2023-01-06T03:32:31;0.93;;;0.40;;
30287;SDS011;17103;48.316;11.558;2023-01-06T03:37:50;0.90;;;0.60;;
30287;SDS011;17103;48.316;11.558;2023-01-06T03:40:37;0.60;;;0.40;;
30287;SDS011;17103;48.316;11.558;2023-01-06T03:43:11;0.70;;;0.40;;
30287;SDS011;17103;48.316;11.558;2023-01-06T03:51:27;0.90;;;0.63;;
30287;SDS011;17103;48.316;11.558;2023-01-06T03:56:34;1.65;;;0.38;;
30287;SDS011;17103;48.316;11.558;2023-01-06T03:59:13;0.95;;;0.40;;
30287;SDS011;17103;48.316;11.558;2023-01-06T04:01:44;0.75;;;0.40;;
30287;SDS011;17103;48.316;11.558;2023-01-06T04:04:10;0.52;;;0.30;;
30287;SDS011;17103;48.316;11.558;2023-01-06T04:06:36;0.75;;;0.40;;
30287;SDS011;17103;48.316;11.558;2023-01-06T04:09:01;0.63;;;0.30;;
30287;SDS011;17103;48.316;11.558;2023-01-06T04:11:27;0.65;;;0.40;;
30287;SDS011;17103;48.316;11.558;2023-01-06T04:14:11;0.55;;;0.40;;
30287;SDS011;17103;48.316;11.558;2023-01-06T04:16:37;1.48;;;0.40;;
30287;SDS011;17103;48.316;11.558;2023-01-06T04:19:03;1.13;;;0.40;;
30287;SDS011;17103;48.316;11.558;2023-01-06T04:21:28;0.80;;;0.50;;
30287;SDS011;17103;48.316;11.558;2023-01-06T04:23:54;1.58;;;0.68;;
30287;SDS011;17103;48.316;11.558;2023-01-06T04:26:19;0.90;;;0.70;;
30287;SDS011;17103;48.316;11.558;2023-01-06T04:28:45;1.25;;;0.80;;
30287;SDS011;17103;48.316;11.558;2023-01-06T04:31:11;1.08;;;0.90;;
30287;SDS011;17103;48.316;11.558;2023-01-06T04:33:36;1.50;;;1.17;;
30287;SDS011;17103;48.316;11.558;2023-01-06T04:36:02;1.52;;;0.93;;
30287;SDS011;17103;48.316;11.558;2023-01-06T04:38:28;1.25;;;0.82;;
30287;SDS011;17103;48.316;11.558;2023-01-06T04:40:54;1.83;;;0.70;;
30287;SDS011;17103;48.316;11.558;2023-01-06T04:43:20;1.65;;;0.90;;
30287;SDS011;17103;48.316;11.558;2023-01-06T04:45:46;1.92;;;0.95;;
30287;SDS011;17103;48.316;11.558;2023-01-06T04:48:11;1.38;;;0.95;;
30287;SDS011;17103;48.316;11.558;2023-01-06T04:50:38;1.70;;;0.73;;
30287;SDS011;17103;48.316;11.558;2023-01-06T04:53:04;1.77;;;0.98;;
30287;SDS011;17103;48.316;11.558;2023-01-06T04:55:32;1.88;;;1.30;;
30287;SDS011;17103;48.316;11.558;2023-01-06T04:57:57;2.55;;;1.23;;
30287;SDS011;17103;48.316;11.558;2023-01-06T05:00:23;2.33;;;1.33;;
30287;SDS011;17103;48.316;11.558;2023-01-06T05:02:49;2.10;;;1.35;;
30287;SDS011;17103;48.316;11.558;2023-01-06T05:05:15;1.15;;;0.90;;
30287;SDS011;17103;48.316;11.558;2023-01-06T05:07:41;3.28;;;1.27;;
30287;SDS011;17103;48.316;11.558;2023-01-06T05:10:07;1.42;;;0.80;;
30287;SDS011;17103;48.316;11.558;2023-01-06T05:12:36;2.25;;;1.20;;
30287;SDS011;17103;48.316;11.558;2023-01-06T05:15:02;1.63;;;1.02;;
30287;SDS011;17103;48.316;11.558;2023-01-06T05:17:30;1.63;;;0.95;;
30287;SDS011;17103;48.316;11.558;2023-01-06T05:19:56;1.00;;;0.70;;
30287;SDS011;17103;48.316;11.558;2023-01-06T05:22:27;0.80;;;0.40;;
30287;SDS011;17103;48.316;11.558;2023-01-06T05:24:58;1.35;;;0.60;;
30287;SDS011;17103;48.316;11.558;2023-01-06T05:27:25;0.82;;;0.50;;
30287;SDS011;17103;48.316;11.558;2023-01-06T05:29:51;0.75;;;0.43;;
30287;SDS011;17103;48.316;11.558;2023-01-06T05:32:19;0.70;;;0.40;;
30287;SDS011;17103;48.316;11.558;2023-01-06T05:34:45;1.25;;;0.60;;
30287;SDS011;17103;48.316;11.558;2023-01-06T05:37:12;0.50;;;0.40;;
30287;SDS011;17103;48.316;11.558;2023-01-06T05:39:45;0.60;;;0.35;;
30287;SDS011;17103;48.316;11.558;2023-01-06T05:42:16;0.50;;;0.30;;
30287;SDS011;17103;48.316;11.558;2023-01-06T05:44:42;0.50;;;0.45;;
30287;SDS011;17103;48.316;11.558;2023-01-06T05:47:07;0.73;;;0.52;;
30287;SDS011;17103;48.316;11.558;2023-01-06T05:49:42;0.30;;;0.30;;
30287;SDS011;17103;48.316;11.558;2023-01-06T05:52:16;0.75;;;0.25;;
30287;SDS011;17103;48.316;11.558;2023-01-06T05:54:43;0.20;;;0.20;;
30287;SDS011;17103;48.316;11.558;2023-01-06T05:57:21;0.60;;;0.30;;
30287;SDS011;17103;48.316;11.558;2023-01-06T05:59:48;0.50;;;0.32;;
30287;SDS011;17103;48.316;11.558;2023-01-06T06:07:31;1.30;;;0.50;;
30287;SDS011;17103;48.316;11.558;2023-01-06T06:09:58;0.93;;;0.43;;
30287;SDS011;17103;48.316;11.558;2023-01-06T06:12:31;0.40;;;0.40;;
30287;SDS011;17103;48.316;11.558;2023-01-06T06:15:03;2.03;;;0.55;;
30287;SDS011;17103;48.316;11.558;2023-01-06T06:17:30;0.32;;;0.30;;
30287;SDS011;17103;48.316;11.558;2023-01-06T06:20:14;0.70;;;0.30;;
30287;SDS011;17103;48.316;11.558;2023-01-06T06:25:10;0.73;;;0.32;;
30287;SDS011;17103;48.316;11.558;2023-01-06T06:30:07;0.47;;;0.30;;
30287;SDS011;17103;48.316;11.558;2023-01-06T06:32:33;0.60;;;0.20;;
30287;SDS011;17103;48.316;11.558;2023-01-06T06:35:00;1.08;;;0.52;;
30287;SDS011;17103;48.316;11.558;2023-01-06T06:37:31;0.55;;;0.38;;
30287;SDS011;17103;48.316;11.558;2023-01-06T06:39:58;0.47;;;0.20;;
30287;SDS011;17103;48.316;11.558;2023-01-06T06:42:25;0.65;;;0.40;;
30287;SDS011;17103;48.316;11.558;2023-01-06T06:44:52;0.98;;;0.30;;
30287;SDS011;17103;48.316;11.558;2023-01-06T06:47:17;0.65;;;0.30;;
30287;SDS011;17103;48.316;11.558;2023-01-06T06:52:19;1.08;;;0.30;;
30287;SDS011;17103;48.316;11.558;2023-01-06T06:54:54;1.70;;;0.30;;
30287;SDS011;17103;48.316;11.558;2023-01-06T06:59:51;0.95;;;0.38;;
30287;SDS011;17103;48.316;11.558;2023-01-06T07:04:57;0.35;;;0.30;;
30287;SDS011;17103;48.316;11.558;2023-01-06T07:07:25;0.38;;;0.30;;
30287;SDS011;17103;48.316;11.558;2023-01-06T07:12:29;0.50;;;0.30;;
30287;SDS011;17103;48.316;11.558;2023-01-06T07:14:55;0.73;;;0.50;;
30287;SDS011;17103;48.316;11.558;2023-01-06T07:17:26;0.47;;;0.20;;
30287;SDS011;17103;48.316;11.558;2023-01-06T07:20:01;1.33;;;0.52;;
30287;SDS011;17103;48.316;11.558;2023-01-06T07:22:27;0.98;;;0.40;;
30287;SDS011;17103;48.316;11.558;2023-01-06T07:24:53;1.92;;;0.57;;
30287;SDS011;17103;48.316;11.558;2023-01-06T07:27:18;0.95;;;0.45;;
30287;SDS011;17103;48.316;11.558;2023-01-06T07:29:45;0.93;;;0.47;;
30287;SDS011;17103;48.316;11.558;2023-01-06T07:32:13;0.93;;;0.40;;
30287;SDS011;17103;48.316;11.558;2023-01-06T07:34:39;0.65;;;0.47;;
30287;SDS011;17103;48.316;11.558;2023-01-06T07:37:05;1.23;;;0.60;;
30287;SDS011;17103;48.316;11.558;2023-01-06T07:39:46;0.90;;;0.70;;
30287;SDS011;17103;48.316;11.558;2023-01-06T07:42:12;1.10;;;0.40;;
30287;SDS011;17103;48.316;11.558;2023-01-06T07:44:38;0.45;;;0.30;;
30287;SDS011;17103;48.316;11.558;2023-01-06T07:47:03;0.40;;;0.20;;
30287;SDS011;17103;48.316;11.558;2023-01-06T07:49:31;0.80;;;0.38;;
30287;SDS011;17103;48.316;11.558;2023-01-06T07:52:07;0.70;;;0.40;;
30287;SDS011;17103;48.316;11.558;2023-01-06T07:54:33;0.47;;;0.25;;
30287;SDS011;17103;48.316;11.558;2023-01-06T07:57:03;1.65;;;0.30;;
30287;SDS011;17103;48.316;11.558;2023-01-06T07:59:28;1.33;;;0.70;;
30287;SDS011;17103;48.316;11.558;2023-01-06T08:01:54;2.28;;;0.30;;
30287;SDS011;17103;48.316;11.558;2023-01-06T08:04:24;1.85;;;0.20;;
30287;SDS011;17103;48.316;11.558;2023-01-06T08:06:54;0.90;;;0.25;;
30287;SDS011;17103;48.316;11.558;2023-01-06T08:09:23;0.60;;;0.38;;
30287;SDS011;17103;48.316;11.558;2023-01-06T08:15:00;2.10;;;0.95;;
30287;SDS011;17103;48.316;11.558;2023-01-06T08:20:02;2.65;;;1.67;;
30287;SDS011;17103;48.316;11.558;2023-01-06T08:22:28;3.00;;;2.40;;
30287;SDS011;17103;48.316;11.558;2023-01-06T08:24:55;4.95;;;4.03;;
30287;SDS011;17103;48.316;11.558;2023-01-06T08:27:21;5.15;;;4.00;;
30287;SDS011;17103;48.316;11.558;2023-01-06T08:29:47;5.72;;;4.80;;
30287;SDS011;17103;48.316;11.558;2023-01-06T08:32:16;8.20;;;6.07;;
30287;SDS011;17103;48.316;11.558;2023-01-06T08:34:48;8.35;;;5.90;;
30287;SDS011;17103;48.316;11.558;2023-01-06T08:37:14;4.25;;;3.03;;
30287;SDS011;17103;48.316;11.558;2023-01-06T08:39:39;4.50;;;3.22;;
30287;SDS011;17103;48.316;11.558;2023-01-06T08:42:06;1.83;;;1.17;;
30287;SDS011;17103;48.316;11.558;2023-01-06T08:44:33;2.35;;;1.73;;
30287;SDS011;17103;48.316;11.558;2023-01-06T08:47:00;1.52;;;1.27;;
30287;SDS011;17103;48.316;11.558;2023-01-06T08:49:26;4.55;;;2.88;;
30287;SDS011;17103;48.316;11.558;2023-01-06T08:51:52;2.05;;;1.30;;
30287;SDS011;17103;48.316;11.558;2023-01-06T08:54:19;1.90;;;0.90;;
30287;SDS011;17103;48.316;11.558;2023-01-06T08:56:45;3.60;;;2.63;;
30287;SDS011;17103;48.316;11.558;2023-01-06T08:59:14;2.08;;;1.50;;
30287;SDS011;17103;48.316;11.558;2023-01-06T09:01:41;6.88;;;5.72;;
30287;SDS011;17103;48.316;11.558;2023-01-06T09:04:08;5.40;;;4.18;;
30287;SDS011;17103;48.316;11.558;2023-01-06T09:06:37;1.63;;;1.10;;
30287;SDS011;17103;48.316;11.558;2023-01-06T09:09:04;0.70;;;0.47;;
30287;SDS011;17103;48.316;11.558;2023-01-06T09:11:34;2.83;;;1.65;;
30287;SDS011;17103;48.316;11.558;2023-01-06T09:14:00;0.50;;;0.30;;
30287;SDS011;17103;48.316;11.558;2023-01-06T09:16:26;0.55;;;0.40;;
30287;SDS011;17103;48.316;11.558;2023-01-06T09:19:04;1.33;;;0.60;;
30287;SDS011;17103;48.316;11.558;2023-01-06T09:23:58;0.98;;;0.68;;
30287;SDS011;17103;48.316;11.558;2023-01-06T09:26:24;2.35;;;0.52;;
30287;SDS011;17103;48.316;11.558;2023-01-06T09:28:53;0.82;;;0.50;;
30287;SDS011;17103;48.316;11.558;2023-01-06T09:31:25;1.15;;;0.70;;
30287;SDS011;17103;48.316;11.558;2023-01-06T09:33:52;1.10;;;0.80;;
30287;SDS011;17103;48.316;11.558;2023-01-06T09:36:21;0.88;;;0.40;;
30287;SDS011;17103;48.316;11.558;2023-01-06T09:44:17;4.47;;;0.90;;
30287;SDS011;17103;48.316;11.558;2023-01-06T09:46:52;0.63;;;0.50;;
30287;SDS011;17103;48.316;11.558;2023-01-06T09:55:06;1.00;;;0.68;;
30287;SDS011;17103;48.316;11.558;2023-01-06T09:57:57;1.75;;;0.85;;
30287;SDS011;17103;48.316;11.558;2023-01-06T10:29:19;1.13;;;0.60;;
30287;SDS011;17103;48.316;11.558;2023-01-06T10:31:48;1.55;;;0.60;;
30287;SDS011;17103;48.316;11.558;2023-01-06T10:34:22;1.75;;;0.73;;
30287;SDS011;17103;48.316;11.558;2023-01-06T10:39:30;0.75;;;0.55;;
30287;SDS011;17103;48.316;11.558;2023-01-06T10:45:06;0.85;;;0.50;;
30287;SDS011;17103;48.316;11.558;2023-01-06T10:47:36;1.20;;;0.60;;
30287;SDS011;17103;48.316;11.558;2023-01-06T10:50:02;1.83;;;0.82;;
30287;SDS011;17103;48.316;11.558;2023-01-06T10:55:03;1.02;;;0.60;;
30287;SDS011;17103;48.316;11.558;2023-01-06T10:57:41;1.67;;;0.60;;
30287;SDS011;17103;48.316;11.558;2023-01-06T11:02:53;2.50;;;0.90;;
30287;SDS011;17103;48.316;11.558;2023-01-06T11:05:38;1.20;;;0.70;;
30287;SDS011;17103;48.316;11.558;2023-01-06T11:08:06;1.27;;;0.75;;
30287;SDS011;17103;48.316;11.558;2023-01-06T11:10:50;1.33;;;0.70;;
30287;SDS011;17103;48.316;11.558;2023-01-06T11:13:38;1.35;;;0.60;;
30287;SDS011;17103;48.316;11.558;2023-01-06T11:16:17;1.08;;;0.77;;
30287;SDS011;17103;48.316;11.558;2023-01-06T11:18:49;3.50;;;1.23;;
30287;SDS011;17103;48.316;11.558;2023-01-06T11:21:17;1.98;;;0.73;;
30287;SDS011;17103;48.316;11.558;2023-01-06T11:23:45;1.30;;;0.60;;
30287;SDS011;17103;48.316;11.558;2023-01-06T11:26:20;0.63;;;0.50;;
30287;SDS011;17103;48.316;11.558;2023-01-06T11:28:49;2.42;;;0.90;;
30287;SDS011;17103;48.316;11.558;2023-01-06T11:31:24;1.33;;;0.85;;
30287;SDS011;17103;48.316;11.558;2023-01-06T11:33:58;1.30;;;0.90;;
30287;SDS011;17103;48.316;11.558;2023-01-06T11:36:27;1.55;;;1.00;;
30287;SDS011;17103;48.316;11.558;2023-01-06T11:38:57;2.05;;;1.15;;
30287;SDS011;17103;48.316;11.558;2023-01-06T11:41:35;1.27;;;1.08;;
30287;SDS011;17103;48.316;11.558;2023-01-06T11:47:05;2.17;;;1.20;;
30287;SDS011;17103;48.316;11.558;2023-01-06T11:49:51;2.05;;;1.70;;
30287;SDS011;17103;48.316;11.558;2023-01-06T11:52:30;2.33;;;1.75;;
30287;SDS011;17103;48.316;11.558;2023-01-06T12:03:32;3.22;;;2.15;;
30287;SDS011;17103;48.316;11.558;2023-01-06T12:08:46;3.45;;;2.28;;
30287;SDS011;17103;48.316;11.558;2023-01-06T12:19:33;4.35;;;2.78;;
30287;SDS011;17103;48.316;11.558;2023-01-06T12:25:03;3.35;;;2.70;;
30287;SDS011;17103;48.316;11.558;2023-01-06T12:27:34;5.22;;;2.83;;
30287;SDS011;17103;48.316;11.558;2023-01-06T12:30:28;4.45;;;2.67;;
30287;SDS011;17103;48.316;11.558;2023-01-06T12:33:17;2.97;;;2.28;;
30287;SDS011;17103;48.316;11.558;2023-01-06T12:36:19;4.00;;;2.92;;
30287;SDS011;17103;48.316;11.558;2023-01-06T12:39:15;4.25;;;2.38;;
30287;SDS011;17103;48.316;11.558;2023-01-06T12:44:53;3.20;;;2.20;;
30287;SDS011;17103;48.316;11.558;2023-01-06T12:47:29;2.75;;;2.22;;
30287;SDS011;17103;48.316;11.558;2023-01-06T12:50:35;2.97;;;1.75;;
30287;SDS011;17103;48.316;11.558;2023-01-06T12:53:12;2.25;;;1.60;;
30287;SDS011;17103;48.316;11.558;2023-01-06T13:01:08;2.55;;;1.67;;
30287;SDS011;17103;48.316;11.558;2023-01-06T13:10:17;2.05;;;1.33;;
30287;SDS011;17103;48.316;11.558;2023-01-06T13:15:59;2.58;;;1.10;;
30287;SDS011;17103;48.316;11.558;2023-01-06T13:21:54;2.70;;;0.93;;
30287;SDS011;17103;48.316;11.558;2023-01-06T13:33:53;1.60;;;0.93;;
30287;SDS011;17103;48.316;11.558;2023-01-06T13:39:10;1.48;;;1.00;;
30287;SDS011;17103;48.316;11.558;2023-01-06T13:41:42;2.15;;;1.52;;
30287;SDS011;17103;48.316;11.558;2023-01-06T13:44:19;2.70;;;1.02;;
30287;SDS011;17103;48.316;11.558;2023-01-06T13:46:48;1.10;;;0.70;;
30287;SDS011;17103;48.316;11.558;2023-01-06T13:51:56;1.15;;;0.90;;
30287;SDS011;17103;48.316;11.558;2023-01-06T13:59:50;1.38;;;1.02;;
30287;SDS011;17103;48.316;11.558;2023-01-06T14:12:55;1.92;;;1.13;;
30287;SDS011;17103;48.316;11.558;2023-01-06T14:15:22;1.83;;;1.00;;
30287;SDS011;17103;48.316;11.558;2023-01-06T14:17:57;2.15;;;0.90;;
30287;SDS011;17103;48.316;11.558;2023-01-06T14:20:28;1.95;;;1.63;;
30287;SDS011;17103;48.316;11.558;2023-01-06T14:25:29;2.97;;;1.50;;
30287;SDS011;17103;48.316;11.558;2023-01-06T14:28:05;2.03;;;1.23;;
30287;SDS011;17103;48.316;11.558;2023-01-06T14:30:33;1.63;;;0.93;;
30287;SDS011;17103;48.316;11.558;2023-01-06T14:33:04;1.25;;;0.88;;
30287;SDS011;17103;48.316;11.558;2023-01-06T14:36:04;0.90;;;0.73;;
30287;SDS011;17103;48.316;11.558;2023-01-06T14:47:10;1.83;;;0.90;;
30287;SDS011;17103;48.316;11.558;2023-01-06T14:52:23;1.85;;;1.05;;
30287;SDS011;17103;48.316;11.558;2023-01-06T14:57:51;2.30;;;1.50;;
30287;SDS011;17103;48.316;11.558;2023-01-06T15:00:25;1.65;;;1.27;;
30287;SDS011;17103;48.316;11.558;2023-01-06T15:03:01;2.97;;;1.20;;
30287;SDS011;17103;48.316;11.558;2023-01-06T15:05:30;2.38;;;1.38;;
30287;SDS011;17103;48.316;11.558;2023-01-06T15:08:14;5.53;;;3.03;;
30287;SDS011;17103;48.316;11.558;2023-01-06T15:10:49;2.40;;;1.63;;
30287;SDS011;17103;48.316;11.558;2023-01-06T15:18:57;1.88;;;1.17;;
30287;SDS011;17103;48.316;11.558;2023-01-06T15:21:28;3.15;;;2.00;;
30287;SDS011;17103;48.316;11.558;2023-01-06T15:24:00;5.30;;;2.42;;
30287;SDS011;17103;48.316;11.558;2023-01-06T15:28:58;3.53;;;2.00;;
30287;SDS011;17103;48.316;11.558;2023-01-06T15:31:32;3.42;;;2.10;;
30287;SDS011;17103;48.316;11.558;2023-01-06T15:36:48;3.20;;;1.88;;
30287;SDS011;17103;48.316;11.558;2023-01-06T15:39:26;4.40;;;2.72;;
30287;SDS011;17103;48.316;11.558;2023-01-06T15:41:54;3.88;;;2.70;;
30287;SDS011;17103;48.316;11.558;2023-01-06T15:49:54;6.78;;;4.18;;
30287;SDS011;17103;48.316;11.558;2023-01-06T15:52:27;3.75;;;2.40;;
30287;SDS011;17103;48.316;11.558;2023-01-06T16:00:35;7.32;;;4.60;;
30287;SDS011;17103;48.316;11.558;2023-01-06T16:03:23;5.43;;;3.42;;
30287;SDS011;17103;48.316;11.558;2023-01-06T16:05:51;4.32;;;3.00;;
30287;SDS011;17103;48.316;11.558;2023-01-06T16:08:27;3.33;;;2.20;;
30287;SDS011;17103;48.316;11.558;2023-01-06T16:14:02;3.35;;;2.13;;
30287;SDS011;17103;48.316;11.558;2023-01-06T16:16:34;3.53;;;2.42;;
30287;SDS011;17103;48.316;11.558;2023-01-06T16:19:08;3.90;;;1.90;;
30287;SDS011;17103;48.316;11.558;2023-01-06T16:21:46;2.67;;;1.90;;
30287;SDS011;17103;48.316;11.558;2023-01-06T16:26:59;2.58;;;1.65;;
30287;SDS011;17103;48.316;11.558;2023-01-06T16:35:08;3.08;;;2.15;;
30287;SDS011;17103;48.316;11.558;2023-01-06T16:37:43;4.30;;;2.47;;
30287;SDS011;17103;48.316;11.558;2023-01-06T16:40:13;2.75;;;1.80;;
30287;SDS011;17103;48.316;11.558;2023-01-06T16:42:47;3.85;;;2.20;;
30287;SDS011;17103;48.316;11.558;2023-01-06T16:45:18;3.55;;;2.38;;
30287;SDS011;17103;48.316;11.558;2023-01-06T16:47:49;4.75;;;3.00;;
30287;SDS011;17103;48.316;11.558;2023-01-06T16:50:16;3.03;;;2.25;;
30287;SDS011;17103;48.316;11.558;2023-01-06T16:52:55;2.08;;;1.42;;
30287;SDS011;17103;48.316;11.558;2023-01-06T16:55:36;1.98;;;1.20;;
30287;SDS011;17103;48.316;11.558;2023-01-06T16:58:16;3.30;;;1.70;;
30287;SDS011;17103;48.316;11.558;2023-01-06T17:00:46;2.92;;;1.90;;
30287;SDS011;17103;48.316;11.558;2023-01-06T17:03:26;2.55;;;1.70;;
30287;SDS011;17103;48.316;11.558;2023-01-06T17:06:00;2.65;;;2.03;;
30287;SDS011;17103;48.316;11.558;2023-01-06T17:11:10;2.38;;;1.20;;
30287;SDS011;17103;48.316;11.558;2023-01-06T17:13:54;1.30;;;0.90;;
30287;SDS011;17103;48.316;11.558;2023-01-06T17:16:23;1.15;;;1.05;;
30287;SDS011;17103;48.316;11.558;2023-01-06T17:18:58;2.20;;;1.25;;
30287;SDS011;17103;48.316;11.558;2023-01-06T17:24:00;1.20;;;1.10;;
30287;SDS011;17103;48.316;11.558;2023-01-06T17:26:38;2.70;;;0.98;;
30287;SDS011;17103;48.316;11.558;2023-01-06T17:29:12;3.53;;;1.75;;
30287;SDS011;17103;48.316;11.558;2023-01-06T17:31:40;2.03;;;1.60;;
30287;SDS011;17103;48.316;11.558;2023-01-06T17:34:13;2.17;;;1.50;;
30287;SDS011;17103;48.316;11.558;2023-01-06T17:36:41;2.55;;;1.50;;
30287;SDS011;17103;48.316;11.558;2023-01-06T17:39:18;2.20;;;1.85;;
30287;SDS011;17103;48.316;11.558;2023-01-06T17:41:48;2.00;;;1.42;;
30287;SDS011;17103;48.316;11.558;2023-01-06T17:44:17;2.25;;;1.50;;
30287;SDS011;17103;48.316;11.558;2023-01-06T17:46:46;1.38;;;0.93;;
30287;SDS011;17103;48.316;11.558;2023-01-06T17:51:43;1.90;;;1.35;;
30287;SDS011;17103;48.316;11.558;2023-01-06T17:54:14;2.13;;;1.00;;
30287;SDS011;17103;48.316;11.558;2023-01-06T17:56:59;2.05;;;1.50;;
30287;SDS011;17103;48.316;11.558;2023-01-06T17:59:35;1.63;;;1.40;;
30287;SDS011;17103;48.316;11.558;2023-01-06T18:02:05;2.20;;;1.50;;
30287;SDS011;17103;48.316;11.558;2023-01-06T18:04:53;2.95;;;2.05;;
30287;SDS011;17103;48.316;11.558;2023-01-06T18:07:19;5.82;;;3.05;;
30287;SDS011;17103;48.316;11.558;2023-01-06T18:09:45;7.15;;;3.67;;
30287;SDS011;17103;48.316;11.558;2023-01-06T18:12:11;6.72;;;3.13;;
30287;SDS011;17103;48.316;11.558;2023-01-06T18:14:40;12.57;;;5.88;;
30287;SDS011;17103;48.316;11.558;2023-01-06T18:17:21;8.90;;;4.90;;
30287;SDS011;17103;48.316;11.558;2023-01-06T18:19:48;7.93;;;4.75;;
30287;SDS011;17103;48.316;11.558;2023-01-06T18:22:15;7.13;;;4.55;;
30287;SDS011;17103;48.316;11.558;2023-01-06T18:24:44;6.72;;;3.80;;
30287;SDS011;17103;48.316;11.558;2023-01-06T18:27:24;5.85;;;2.92;;
30287;SDS011;17103;48.316;11.558;2023-01-06T18:29:52;3.58;;;2.30;;
30287;SDS011;17103;48.316;11.558;2023-01-06T18:32:23;2.30;;;1.73;;
30287;SDS011;17103;48.316;11.558;2023-01-06T18:34:52;1.83;;;1.20;;
30287;SDS011;17103;48.316;11.558;2023-01-06T18:37:27;1.70;;;1.05;;
30287;SDS011;17103;48.316;11.558;2023-01-06T18:39:56;1.80;;;1.10;;
30287;SDS011;17103;48.316;11.558;2023-01-06T18:42:24;1.50;;;0.93;;
30287;SDS011;17103;48.316;11.558;2023-01-06T18:47:23;4.20;;;2.22;;
30287;SDS011;17103;48.316;11.558;2023-01-06T18:49:53;2.65;;;1.80;;
30287;SDS011;17103;48.316;11.558;2023-01-06T18:54:53;2.95;;;2.28;;
30287;SDS011;17103;48.316;11.558;2023-01-06T18:57:25;2.33;;;1.50;;
30287;SDS011;17103;48.316;11.558;2023-01-06T19:00:41;2.22;;;1.55;;
30287;SDS011;17103;48.316;11.558;2023-01-06T19:02:48;2.63;;;1.63;;
30287;SDS011;17103;48.316;11.558;2023-01-06T19:05:15;2.65;;;1.50;;
30287;SDS011;17103;48.316;11.558;2023-01-06T19:07:41;2.13;;;1.40;;
30287;SDS011;17103;48.316;11.558;2023-01-06T19:10:07;8.57;;;4.43;;
30287;SDS011;17103;48.316;11.558;2023-01-06T19:12:52;6.78;;;4.32;;
30287;SDS011;17103;48.316;11.558;2023-01-06T19:15:23;6.43;;;4.30;;
30287;SDS011;17103;48.316;11.558;2023-01-06T19:17:50;2.67;;;1.50;;
30287;SDS011;17103;48.316;11.558;2023-01-06T19:22:45;2.40;;;1.58;;
30287;SDS011;17103;48.316;11.558;2023-01-06T19:27:49;1.55;;;1.42;;
30287;SDS011;17103;48.316;11.558;2023-01-06T19:33:17;2.03;;;1.40;;
30287;SDS011;17103;48.316;11.558;2023-01-06T19:38:43;2.13;;;1.80;;
30287;SDS011;17103;48.316;11.558;2023-01-06T19:41:24;2.70;;;1.60;;
30287;SDS011;17103;48.316;11.558;2023-01-06T19:46:32;1.90;;;1.05;;
30287;SDS011;17103;48.316;11.558;2023-01-06T19:49:24;2.08;;;1.25;;
30287;SDS011;17103;48.316;11.558;2023-01-06T19:51:50;4.50;;;3.80;;
30287;SDS011;17103;48.316;11.558;2023-01-06T19:54:27;3.97;;;2.80;;
30287;SDS011;17103;48.316;11.558;2023-01-06T19:56:58;3.38;;;2.33;;
30287;SDS011;17103;48.316;11.558;2023-01-06T20:04:31;2.15;;;1.73;;
30287;SDS011;17103;48.316;11.558;2023-01-06T20:06:57;14.50;;;12.48;;
30287;SDS011;17103;48.316;11.558;2023-01-06T20:09:22;15.40;;;11.10;;
30287;SDS011;17103;48.316;11.558;2023-01-06T20:11:49;30.15;;;20.10;;
30287;SDS011;17103;48.316;11.558;2023-01-06T20:14:15;27.90;;;16.95;;
30287;SDS011;17103;48.316;11.558;2023-01-06T20:16:41;5.53;;;3.60;;
30287;SDS011;17103;48.316;11.558;2023-01-06T20:19:07;12.00;;;6.55;;